Time,TemperatureF,DewpointF,PressureIn,WindDirection,WindDirectionDegrees,WindSpeedMPH,WindSpeedGustMPH,Humidity,HourlyPrecipIn,Conditions,Clouds,dailyrainin,SoftwareType,DateUTC
2013-08-02 00:01:00,69.0,68.0,29.91,NNW,329,0.0,3.0,97,0.00,,,0.04,,2013-08-02 04:01:00,
2013-08-02 00:02:00,69.0,68.0,29.91,NNW,329,0.0,3.0,97,0.00,,,0.04,,2013-08-02 04:02:00,
2013-08-02 00:12:00,69.0,68.0,29.91,NNW,329,0.0,3.0,97,0.00,,,0.04,,2013-08-02 04:12:00,
2013-08-02 00:22:00,68.0,67.0,29.93,NNW,329,0.0,1.0,97,0.00,,,0.04,,2013-08-02 04:22:00,
2013-08-02 00:33:00,68.0,67.0,29.93,NNW,329,0.0,1.0,97,0.00,,,0.04,,2013-08-02 04:33:00,
2013-08-02 00:43:00,68.0,67.0,29.93,NNW,329,0.0,1.0,97,0.00,,,0.04,,2013-08-02 04:43:00,
2013-08-02 00:53:00,66.0,65.0,29.93,North,6,0.0,4.0,98,0.00,,,0.04,,2013-08-02 04:53:00,
2013-08-02 01:02:00,66.0,65.0,29.93,North,6,0.0,4.0,98,0.00,,,0.04,,2013-08-02 05:02:00,
2013-08-02 01:12:00,66.0,65.0,29.93,North,6,0.0,4.0,98,0.00,,,0.04,,2013-08-02 05:12:00,
2013-08-02 01:22:00,65.0,64.0,29.93,North,6,0.0,1.0,98,0.00,,,0.04,,2013-08-02 05:22:00,
2013-08-02 01:32:00,65.0,64.0,29.93,North,6,0.0,1.0,98,0.00,,,0.04,,2013-08-02 05:32:00,
2013-08-02 01:43:00,65.0,64.0,29.93,North,6,0.0,1.0,98,0.00,,,0.04,,2013-08-02 05:43:00,
2013-08-02 01:53:00,64.0,63.0,29.93,North,6,0.0,0.0,98,0.00,,,0.04,,2013-08-02 05:53:00,
2013-08-02 02:02:00,64.0,63.0,29.93,North,6,0.0,0.0,98,0.00,,,0.04,,2013-08-02 06:02:00,
2013-08-02 02:12:00,64.0,63.0,29.93,North,6,0.0,0.0,98,0.00,,,0.04,,2013-08-02 06:12:00,
2013-08-02 02:22:00,63.0,63.0,29.93,North,6,0.0,0.0,99,0.00,,,0.04,,2013-08-02 06:22:00,
2013-08-02 02:33:00,63.0,63.0,29.93,North,6,0.0,0.0,99,0.00,,,0.04,,2013-08-02 06:33:00,
2013-08-02 02:43:00,63.0,63.0,29.93,North,6,0.0,0.0,99,0.00,,,0.04,,2013-08-02 06:43:00,
2013-08-02 02:52:00,62.0,62.0,29.92,North,5,0.0,0.0,99,0.00,,,0.04,,2013-08-02 06:52:00,
2013-08-02 03:02:00,62.0,62.0,29.92,North,5,0.0,0.0,99,0.00,,,0.04,,2013-08-02 07:02:00,
2013-08-02 03:12:00,62.0,62.0,29.92,North,5,0.0,0.0,99,0.00,,,0.04,,2013-08-02 07:12:00,
2013-08-02 03:22:00,62.0,62.0,29.92,North,3,0.0,0.0,99,0.00,,,0.04,,2013-08-02 07:22:00,
2013-08-02 03:33:00,62.0,62.0,29.92,North,3,0.0,0.0,99,0.00,,,0.04,,2013-08-02 07:33:00,
2013-08-02 03:44:00,62.0,62.0,29.92,North,3,0.0,0.0,99,0.00,,,0.04,,2013-08-02 07:44:00,
2013-08-02 03:53:00,61.0,61.0,29.92,North,7,0.0,0.0,100,0.00,,,0.04,,2013-08-02 07:53:00,
2013-08-02 04:02:00,61.0,61.0,29.92,North,7,0.0,0.0,100,0.00,,,0.04,,2013-08-02 08:02:00,
2013-08-02 04:12:00,61.0,61.0,29.92,North,7,0.0,0.0,100,0.00,,,0.04,,2013-08-02 08:12:00,
2013-08-02 04:22:00,60.0,60.0,29.92,North,7,0.0,0.0,100,0.00,,,0.04,,2013-08-02 08:22:00,
2013-08-02 04:33:00,60.0,60.0,29.92,North,7,0.0,0.0,100,0.00,,,0.04,,2013-08-02 08:33:00,
2013-08-02 04:43:00,60.0,60.0,29.92,North,7,0.0,0.0,100,0.00,,,0.04,,2013-08-02 08:43:00,
2013-08-02 04:54:00,60.0,60.0,29.93,North,7,0.0,1.0,100,0.00,,,0.04,,2013-08-02 08:54:00,
2013-08-02 05:02:00,60.0,60.0,29.93,North,7,0.0,1.0,100,0.00,,,0.04,,2013-08-02 09:02:00,
2013-08-02 05:12:00,60.0,60.0,29.93,North,7,0.0,1.0,100,0.00,,,0.04,,2013-08-02 09:12:00,
2013-08-02 05:23:00,62.0,62.0,29.94,North,7,0.0,1.0,100,0.00,,,0.04,,2013-08-02 09:23:00,
2013-08-02 05:33:00,62.0,62.0,29.94,North,7,0.0,1.0,100,0.00,,,0.04,,2013-08-02 09:33:00,
2013-08-02 05:44:00,62.0,62.0,29.94,North,7,0.0,1.0,100,0.00,,,0.04,,2013-08-02 09:44:00,
2013-08-02 05:53:00,63.0,63.0,29.95,North,7,0.0,2.0,100,0.00,,,0.04,,2013-08-02 09:53:00,
2013-08-02 06:03:00,63.0,63.0,29.95,North,7,0.0,2.0,100,0.00,,,0.04,,2013-08-02 10:03:00,
2013-08-02 06:12:00,63.0,63.0,29.95,North,7,0.0,2.0,100,0.00,,,0.04,,2013-08-02 10:12:00,
2013-08-02 06:23:00,63.0,63.0,29.96,North,7,0.0,1.0,100,0.00,,,0.04,,2013-08-02 10:23:00,
2013-08-02 06:33:00,63.0,63.0,29.96,North,7,0.0,1.0,100,0.00,,,0.04,,2013-08-02 10:33:00,
2013-08-02 06:44:00,63.0,63.0,29.96,North,7,0.0,1.0,100,0.00,,,0.04,,2013-08-02 10:44:00,
2013-08-02 06:52:00,63.0,63.0,29.96,North,7,0.0,1.0,100,0.00,,,0.02,,2013-08-02 10:52:00,
2013-08-02 07:02:00,63.0,63.0,29.96,North,7,0.0,1.0,100,0.00,,,0.02,,2013-08-02 11:02:00,
2013-08-02 07:12:00,63.0,63.0,29.96,North,7,0.0,1.0,100,0.00,,,0.02,,2013-08-02 11:12:00,
2013-08-02 07:23:00,63.0,63.0,29.97,North,7,1.0,2.0,100,0.00,,,0.02,,2013-08-02 11:23:00,
2013-08-02 07:32:00,63.0,63.0,29.97,North,7,1.0,2.0,100,0.00,,,0.02,,2013-08-02 11:32:00,
2013-08-02 07:43:00,63.0,63.0,29.97,North,7,1.0,2.0,100,0.00,,,0.02,,2013-08-02 11:43:00,
2013-08-02 07:52:00,64.0,64.0,29.98,SSW,208,0.0,3.0,100,0.00,,,0.02,,2013-08-02 11:52:00,
2013-08-02 08:02:00,64.0,64.0,29.98,SSW,208,0.0,3.0,100,0.00,,,0.02,,2013-08-02 12:02:00,
2013-08-02 08:12:00,64.0,64.0,29.98,SSW,208,0.0,3.0,100,0.00,,,0.02,,2013-08-02 12:12:00,
2013-08-02 08:22:00,64.0,64.0,29.99,SW,234,4.0,5.0,100,0.00,,,0.02,,2013-08-02 12:22:00,
2013-08-02 08:33:00,64.0,64.0,29.99,SW,234,4.0,5.0,100,0.00,,,0.02,,2013-08-02 12:33:00,
2013-08-02 08:43:00,64.0,64.0,29.99,SW,234,4.0,5.0,100,0.00,,,0.02,,2013-08-02 12:43:00,
2013-08-02 08:52:00,65.0,65.0,29.99,SW,234,0.0,5.0,100,0.00,,,0.02,,2013-08-02 12:52:00,
2013-08-02 09:03:00,65.0,65.0,29.99,SW,234,0.0,5.0,100,0.00,,,0.02,,2013-08-02 13:03:00,
2013-08-02 09:12:00,65.0,65.0,29.99,SW,234,0.0,5.0,100,0.00,,,0.02,,2013-08-02 13:12:00,
2013-08-02 09:22:00,66.0,66.0,29.99,SW,232,4.0,4.0,100,0.00,,,0.02,,2013-08-02 13:22:00,
2013-08-02 09:33:00,66.0,66.0,29.99,SW,232,4.0,4.0,100,0.00,,,0.02,,2013-08-02 13:33:00,
2013-08-02 09:52:00,69.0,68.0,30.00,WSW,238,3.0,5.0,97,0.00,,,0.02,,2013-08-02 13:52:00,
2013-08-02 10:02:00,69.0,68.0,30.00,WSW,238,3.0,5.0,97,0.00,,,0.02,,2013-08-02 14:02:00,
2013-08-02 10:12:00,69.0,68.0,30.00,WSW,238,3.0,5.0,97,0.00,,,0.02,,2013-08-02 14:12:00,
2013-08-02 10:22:00,73.0,69.0,30.00,SSW,201,0.0,6.0,86,0.00,,,0.02,,2013-08-02 14:22:00,
2013-08-02 10:32:00,73.0,69.0,30.00,SSW,201,0.0,6.0,86,0.00,,,0.02,,2013-08-02 14:32:00,
2013-08-02 10:43:00,73.0,69.0,30.00,SSW,201,0.0,6.0,86,0.00,,,0.02,,2013-08-02 14:43:00,
2013-08-02 11:52:00,80.0,67.0,29.99,SW,221,1.0,7.0,65,0.00,,,0.02,,2013-08-02 15:52:00,
2013-08-02 12:02:00,80.0,67.0,29.99,SW,221,1.0,7.0,65,0.00,,,0.02,,2013-08-02 16:02:00,
2013-08-02 12:12:00,80.0,67.0,29.99,SW,221,1.0,7.0,65,0.00,,,0.02,,2013-08-02 16:12:00,
2013-08-02 12:22:00,80.0,67.0,29.99,SW,221,1.0,7.0,65,0.00,,,0.02,,2013-08-02 16:22:00,
2013-08-02 12:53:00,82.0,66.0,29.98,SSW,209,5.0,10.0,58,0.00,,,0.02,,2013-08-02 16:53:00,
2013-08-02 13:02:00,82.0,66.0,29.98,SSW,209,5.0,10.0,58,0.00,,,0.02,,2013-08-02 17:02:00,
2013-08-02 13:12:00,82.0,66.0,29.98,SSW,209,5.0,10.0,58,0.00,,,0.02,,2013-08-02 17:12:00,
2013-08-02 13:22:00,84.0,66.0,29.98,SW,225,4.0,12.0,55,0.00,,,0.02,,2013-08-02 17:22:00,
2013-08-02 13:35:00,84.0,66.0,29.98,SW,225,4.0,12.0,55,0.00,,,0.02,,2013-08-02 17:35:00,
2013-08-02 13:43:00,84.0,66.0,29.98,SW,225,4.0,12.0,55,0.00,,,0.02,,2013-08-02 17:43:00,
2013-08-02 13:52:00,84.0,66.0,29.98,West,277,4.0,12.0,55,0.00,,,0.02,,2013-08-02 17:52:00,
2013-08-02 14:02:00,84.0,66.0,29.98,West,277,4.0,12.0,55,0.00,,,0.02,,2013-08-02 18:02:00,
2013-08-02 14:12:00,84.0,66.0,29.98,West,277,4.0,12.0,55,0.00,,,0.02,,2013-08-02 18:12:00,
2013-08-02 14:22:00,84.0,67.0,29.96,SSW,205,5.0,13.0,56,0.00,,,0.01,,2013-08-02 18:22:00,
2013-08-02 14:32:00,84.0,67.0,29.96,SSW,205,5.0,13.0,56,0.00,,,0.01,,2013-08-02 18:32:00,
2013-08-02 14:43:00,84.0,67.0,29.96,SSW,205,5.0,13.0,56,0.00,,,0.01,,2013-08-02 18:43:00,
2013-08-02 14:52:00,82.0,65.0,29.96,SW,219,9.0,12.0,57,0.00,,,0.01,,2013-08-02 18:52:00,
2013-08-02 15:02:00,82.0,65.0,29.96,SW,219,9.0,12.0,57,0.00,,,0.01,,2013-08-02 19:02:00,
2013-08-02 15:12:00,82.0,65.0,29.96,SW,219,9.0,12.0,57,0.00,,,0.01,,2013-08-02 19:12:00,
2013-08-02 15:22:00,83.0,66.0,29.96,SW,215,6.0,13.0,56,0.00,,,0.01,,2013-08-02 19:22:00,
2013-08-02 15:32:00,83.0,66.0,29.96,SW,215,6.0,13.0,56,0.00,,,0.01,,2013-08-02 19:32:00,
2013-08-02 15:43:00,83.0,66.0,29.96,SW,215,6.0,13.0,56,0.00,,,0.01,,2013-08-02 19:43:00,
2013-08-02 15:52:00,81.0,65.0,29.96,SW,217,3.0,13.0,59,0.00,,,0.01,,2013-08-02 19:52:00,
2013-08-02 16:02:00,81.0,65.0,29.96,SW,217,3.0,13.0,59,0.00,,,0.01,,2013-08-02 20:02:00,
2013-08-02 16:12:00,81.0,65.0,29.96,SW,217,3.0,13.0,59,0.00,,,0.01,,2013-08-02 20:12:00,
2013-08-02 16:23:00,81.0,65.0,29.95,SW,220,5.0,14.0,59,0.00,,,0.01,,2013-08-02 20:23:00,
2013-08-02 16:32:00,81.0,65.0,29.95,SW,220,5.0,14.0,59,0.00,,,0.01,,2013-08-02 20:32:00,
2013-08-02 16:43:00,81.0,65.0,29.95,SW,220,5.0,14.0,59,0.00,,,0.01,,2013-08-02 20:43:00,
2013-08-02 16:52:00,81.0,64.0,29.96,SW,233,6.0,15.0,56,0.00,,,0.01,,2013-08-02 20:52:00,
2013-08-02 17:03:00,81.0,64.0,29.96,SW,233,6.0,15.0,56,0.00,,,0.01,,2013-08-02 21:03:00,
2013-08-02 17:12:00,81.0,64.0,29.96,SW,233,6.0,15.0,56,0.00,,,0.01,,2013-08-02 21:12:00,
2013-08-02 17:22:00,79.0,63.0,29.93,SW,225,5.0,13.0,58,0.00,,,0.01,,2013-08-02 21:22:00,
2013-08-02 17:32:00,79.0,63.0,29.93,SW,225,5.0,13.0,58,0.00,,,0.01,,2013-08-02 21:32:00,
2013-08-02 17:43:00,79.0,63.0,29.93,SW,225,5.0,13.0,58,0.00,,,0.01,,2013-08-02 21:43:00,
2013-08-02 17:53:00,78.0,63.0,29.93,WSW,239,3.0,9.0,60,0.00,,,0.01,,2013-08-02 21:53:00,
2013-08-02 18:03:00,78.0,63.0,29.93,WSW,239,3.0,9.0,60,0.00,,,0.01,,2013-08-02 22:03:00,
2013-08-02 18:12:00,78.0,63.0,29.93,WSW,239,3.0,9.0,60,0.00,,,0.01,,2013-08-02 22:12:00,
2013-08-02 18:22:00,81.0,63.0,29.94,WSW,239,1.0,15.0,55,0.00,,,0.01,,2013-08-02 22:22:00,
2013-08-02 18:32:00,81.0,63.0,29.94,WSW,239,1.0,15.0,55,0.00,,,0.01,,2013-08-02 22:32:00,
2013-08-02 18:43:00,81.0,63.0,29.94,WSW,239,1.0,15.0,55,0.00,,,0.01,,2013-08-02 22:43:00,
2013-08-02 18:52:00,80.0,62.0,29.94,SW,219,6.0,15.0,54,0.00,,,0.01,,2013-08-02 22:52:00,
2013-08-02 19:02:00,80.0,62.0,29.94,SW,219,6.0,15.0,54,0.00,,,0.01,,2013-08-02 23:02:00,
2013-08-02 19:12:00,80.0,62.0,29.94,SW,219,6.0,15.0,54,0.00,,,0.01,,2013-08-02 23:12:00,
2013-08-02 19:22:00,79.0,62.0,29.95,WSW,246,0.0,12.0,56,0.00,,,0.01,,2013-08-02 23:22:00,
2013-08-02 19:32:00,79.0,62.0,29.95,WSW,246,0.0,12.0,56,0.00,,,0.01,,2013-08-02 23:32:00,
2013-08-02 19:44:00,79.0,62.0,29.95,WSW,246,0.0,12.0,56,0.00,,,0.01,,2013-08-02 23:44:00,
2013-08-02 19:53:00,77.0,63.0,29.95,WSW,250,4.0,12.0,61,0.00,,,0.01,,2013-08-02 23:53:00,
2013-08-02 20:02:00,77.0,63.0,29.95,WSW,250,4.0,12.0,61,0.00,,,0.01,,2013-08-03 00:02:00,
2013-08-02 20:12:00,77.0,63.0,29.95,WSW,250,4.0,12.0,61,0.00,,,0.01,,2013-08-03 00:12:00,
2013-08-02 20:22:00,75.0,63.0,29.96,SW,236,0.0,6.0,66,0.00,,,0.01,,2013-08-03 00:22:00,
2013-08-02 20:33:00,75.0,63.0,29.96,SW,236,0.0,6.0,66,0.00,,,0.01,,2013-08-03 00:33:00,
2013-08-02 20:43:00,75.0,63.0,29.96,SW,236,0.0,6.0,66,0.00,,,0.01,,2013-08-03 00:43:00,
2013-08-02 20:52:00,72.0,62.0,29.96,WSW,256,0.0,7.0,70,0.00,,,0.01,,2013-08-03 00:52:00,
2013-08-02 21:03:00,72.0,62.0,29.96,WSW,256,0.0,7.0,70,0.00,,,0.01,,2013-08-03 01:03:00,
2013-08-02 21:12:00,72.0,62.0,29.96,WSW,256,0.0,7.0,70,0.00,,,0.01,,2013-08-03 01:12:00,
2013-08-02 21:22:00,69.0,61.0,29.98,West,279,0.0,0.0,75,0.00,,,0.01,,2013-08-03 01:22:00,
2013-08-02 21:33:00,69.0,61.0,29.98,West,279,0.0,0.0,75,0.00,,,0.01,,2013-08-03 01:33:00,
2013-08-02 21:43:00,69.0,61.0,29.98,West,279,0.0,0.0,75,0.00,,,0.01,,2013-08-03 01:43:00,
2013-08-02 21:53:00,67.0,60.0,29.99,West,279,0.0,2.0,78,0.00,,,0.01,,2013-08-03 01:53:00,
2013-08-02 22:02:00,67.0,60.0,29.99,West,279,0.0,2.0,78,0.00,,,0.01,,2013-08-03 02:02:00,
2013-08-02 22:12:00,67.0,60.0,29.99,West,279,0.0,2.0,78,0.00,,,0.01,,2013-08-03 02:12:00,
2013-08-02 22:32:00,66.0,59.0,30.00,West,280,0.0,2.0,79,0.00,,,0.01,,2013-08-03 02:32:00,
2013-08-02 22:43:00,66.0,59.0,30.00,West,280,0.0,2.0,79,0.00,,,0.01,,2013-08-03 02:43:00,
2013-08-02 22:53:00,65.0,59.0,29.99,West,279,0.0,0.0,81,0.00,,,0.00,,2013-08-03 02:53:00,
2013-08-02 23:03:00,65.0,59.0,29.99,West,279,0.0,0.0,81,0.00,,,0.00,,2013-08-03 03:03:00,
2013-08-02 23:12:00,65.0,59.0,29.99,West,279,0.0,0.0,81,0.00,,,0.00,,2013-08-03 03:12:00,
2013-08-02 23:22:00,64.0,59.0,29.99,West,264,0.0,1.0,83,0.00,,,0.00,,2013-08-03 03:22:00,
2013-08-02 23:32:00,64.0,59.0,29.99,West,264,0.0,1.0,83,0.00,,,0.00,,2013-08-03 03:32:00,
2013-08-02 23:43:00,64.0,59.0,29.99,West,264,0.0,1.0,83,0.00,,,0.00,,2013-08-03 03:43:00,
2013-08-02 23:53:00,64.0,59.0,29.98,West,264,0.0,1.0,83,0.00,,,0.00,,2013-08-03 03:53:00,